Terminal Aerodrome Forecast
Issued by NWS

Home | Current Version | Previous Version | Text Only | Print | Product List | Glossary Off
Versions: 1 2 3 4 5 6 7 8 9 10 11 12 13 14 15 16 17 18 19 20

000
FTUS43 KGRB 270224 AAA
TAFAUW
TAF AMD
KAUW 270224Z 2702/2724 32007KT P6SM OVC007
      TEMPO 2705/2708 5SM -DZ BR
     FM270800 33009G14KT 5SM -RA BR OVC005
      TEMPO 2710/2714 3SM RA BR OVC003
     FM271500 30009G14KT 5SM -RA BR OVC007
     FM271800 28012G19KT P6SM OVC012
     FM272200 27011G17KT P6SM OVC025=

USA.gov is the U.S. government's official web portal to all federal, state and local government web resources and services.